sensor_id;sensor_type;location;lat;lon;timestamp;P1;durP1;ratioP1;P2;durP2;ratioP2
66741;SDS011;53654;54.152;19.432;2023-05-20T00:00:31;2.30;;;1.60;;
66741;SDS011;53654;54.152;19.432;2023-05-20T00:03:15;2.30;;;1.60;;
66741;SDS011;53654;54.152;19.432;2023-05-20T00:05:44;2.30;;;1.50;;
66741;SDS011;53654;54.152;19.432;2023-05-20T00:08:13;2.30;;;1.50;;
66741;SDS011;53654;54.152;19.432;2023-05-20T00:10:42;2.60;;;1.60;;
66741;SDS011;53654;54.152;19.432;2023-05-20T00:13:10;2.90;;;1.70;;
66741;SDS011;53654;54.152;19.432;2023-05-20T00:15:38;2.50;;;1.60;;
66741;SDS011;53654;54.152;19.432;2023-05-20T00:18:06;2.10;;;1.80;;
66741;SDS011;53654;54.152;19.432;2023-05-20T00:20:35;1.70;;;1.50;;
66741;SDS011;53654;54.152;19.432;2023-05-20T00:23:03;1.60;;;1.50;;
66741;SDS011;53654;54.152;19.432;2023-05-20T00:25:31;3.90;;;1.80;;
66741;SDS011;53654;54.152;19.432;2023-05-20T00:28:00;2.80;;;1.60;;
66741;SDS011;53654;54.152;19.432;2023-05-20T00:30:28;2.70;;;1.60;;
66741;SDS011;53654;54.152;19.432;2023-05-20T00:32:56;3.10;;;1.70;;
66741;SDS011;53654;54.152;19.432;2023-05-20T00:35:24;3.10;;;1.80;;
66741;SDS011;53654;54.152;19.432;2023-05-20T00:37:53;2.90;;;1.60;;
66741;SDS011;53654;54.152;19.432;2023-05-20T00:40:21;2.30;;;1.60;;
66741;SDS011;53654;54.152;19.432;2023-05-20T00:42:50;2.80;;;1.50;;
66741;SDS011;53654;54.152;19.432;2023-05-20T00:45:18;2.70;;;1.70;;
66741;SDS011;53654;54.152;19.432;2023-05-20T00:47:46;2.20;;;1.70;;
66741;SDS011;53654;54.152;19.432;2023-05-20T00:50:15;2.20;;;1.80;;
66741;SDS011;53654;54.152;19.432;2023-05-20T00:52:44;2.70;;;1.80;;
66741;SDS011;53654;54.152;19.432;2023-05-20T00:55:15;2.60;;;1.60;;
66741;SDS011;53654;54.152;19.432;2023-05-20T00:57:43;3.40;;;1.80;;
66741;SDS011;53654;54.152;19.432;2023-05-20T01:00:11;2.00;;;1.70;;
66741;SDS011;53654;54.152;19.432;2023-05-20T01:02:41;3.20;;;1.70;;
66741;SDS011;53654;54.152;19.432;2023-05-20T01:05:09;2.50;;;1.70;;
66741;SDS011;53654;54.152;19.432;2023-05-20T01:07:37;3.20;;;1.80;;
66741;SDS011;53654;54.152;19.432;2023-05-20T01:10:06;2.10;;;1.90;;
66741;SDS011;53654;54.152;19.432;2023-05-20T01:12:36;1.90;;;1.70;;
66741;SDS011;53654;54.152;19.432;2023-05-20T01:15:11;2.60;;;1.70;;
66741;SDS011;53654;54.152;19.432;2023-05-20T01:17:47;3.40;;;1.70;;
66741;SDS011;53654;54.152;19.432;2023-05-20T01:20:19;2.80;;;1.70;;
66741;SDS011;53654;54.152;19.432;2023-05-20T01:22:51;2.80;;;1.80;;
66741;SDS011;53654;54.152;19.432;2023-05-20T01:25:21;3.20;;;1.70;;
66741;SDS011;53654;54.152;19.432;2023-05-20T01:27:49;3.40;;;1.60;;
66741;SDS011;53654;54.152;19.432;2023-05-20T01:30:19;2.10;;;1.70;;
66741;SDS011;53654;54.152;19.432;2023-05-20T01:32:53;2.60;;;1.70;;
66741;SDS011;53654;54.152;19.432;2023-05-20T01:35:25;3.90;;;1.80;;
66741;SDS011;53654;54.152;19.432;2023-05-20T01:37:55;3.00;;;1.70;;
66741;SDS011;53654;54.152;19.432;2023-05-20T01:40:25;3.10;;;1.60;;
66741;SDS011;53654;54.152;19.432;2023-05-20T01:42:55;3.30;;;1.80;;
66741;SDS011;53654;54.152;19.432;2023-05-20T01:45:25;2.00;;;1.70;;
66741;SDS011;53654;54.152;19.432;2023-05-20T01:47:53;3.00;;;1.80;;
66741;SDS011;53654;54.152;19.432;2023-05-20T01:50:21;2.40;;;1.70;;
66741;SDS011;53654;54.152;19.432;2023-05-20T01:52:49;2.30;;;1.80;;
66741;SDS011;53654;54.152;19.432;2023-05-20T01:55:18;3.20;;;1.90;;
66741;SDS011;53654;54.152;19.432;2023-05-20T01:57:46;4.10;;;1.80;;
66741;SDS011;53654;54.152;19.432;2023-05-20T02:00:14;2.50;;;1.50;;
66741;SDS011;53654;54.152;19.432;2023-05-20T02:02:44;3.00;;;1.60;;
66741;SDS011;53654;54.152;19.432;2023-05-20T02:05:13;3.40;;;1.70;;
66741;SDS011;53654;54.152;19.432;2023-05-20T02:07:42;2.20;;;1.70;;
66741;SDS011;53654;54.152;19.432;2023-05-20T02:10:11;2.50;;;1.70;;
66741;SDS011;53654;54.152;19.432;2023-05-20T02:12:39;3.20;;;1.80;;
66741;SDS011;53654;54.152;19.432;2023-05-20T02:15:07;2.60;;;1.60;;
66741;SDS011;53654;54.152;19.432;2023-05-20T02:17:36;2.30;;;1.50;;
66741;SDS011;53654;54.152;19.432;2023-05-20T02:20:05;2.20;;;1.50;;
66741;SDS011;53654;54.152;19.432;2023-05-20T02:22:34;2.40;;;1.50;;
66741;SDS011;53654;54.152;19.432;2023-05-20T02:25:03;2.60;;;1.60;;
66741;SDS011;53654;54.152;19.432;2023-05-20T02:27:32;2.90;;;2.10;;
66741;SDS011;53654;54.152;19.432;2023-05-20T02:30:00;2.90;;;2.00;;
66741;SDS011;53654;54.152;19.432;2023-05-20T02:32:29;2.80;;;2.40;;
66741;SDS011;53654;54.152;19.432;2023-05-20T02:34:57;2.30;;;2.10;;
66741;SDS011;53654;54.152;19.432;2023-05-20T02:37:25;2.10;;;1.90;;
66741;SDS011;53654;54.152;19.432;2023-05-20T02:39:53;4.60;;;2.40;;
66741;SDS011;53654;54.152;19.432;2023-05-20T02:42:23;3.40;;;2.20;;
66741;SDS011;53654;54.152;19.432;2023-05-20T02:44:51;3.70;;;2.60;;
66741;SDS011;53654;54.152;19.432;2023-05-20T02:47:23;3.10;;;2.40;;
66741;SDS011;53654;54.152;19.432;2023-05-20T02:49:52;4.40;;;2.50;;
66741;SDS011;53654;54.152;19.432;2023-05-20T02:52:20;3.20;;;2.60;;
66741;SDS011;53654;54.152;19.432;2023-05-20T02:54:49;4.40;;;3.00;;
66741;SDS011;53654;54.152;19.432;2023-05-20T02:57:18;3.40;;;2.80;;
66741;SDS011;53654;54.152;19.432;2023-05-20T02:59:46;2.90;;;2.60;;
66741;SDS011;53654;54.152;19.432;2023-05-20T03:02:14;3.00;;;2.70;;
66741;SDS011;53654;54.152;19.432;2023-05-20T03:04:42;2.80;;;2.50;;
66741;SDS011;53654;54.152;19.432;2023-05-20T03:07:13;3.30;;;2.40;;
66741;SDS011;53654;54.152;19.432;2023-05-20T03:09:46;3.10;;;2.70;;
66741;SDS011;53654;54.152;19.432;2023-05-20T03:12:14;3.30;;;2.60;;
66741;SDS011;53654;54.152;19.432;2023-05-20T03:14:43;2.90;;;2.70;;
66741;SDS011;53654;54.152;19.432;2023-05-20T03:17:11;3.30;;;2.50;;
66741;SDS011;53654;54.152;19.432;2023-05-20T03:19:39;3.30;;;2.60;;
66741;SDS011;53654;54.152;19.432;2023-05-20T03:22:08;3.80;;;2.50;;
66741;SDS011;53654;54.152;19.432;2023-05-20T03:24:36;3.50;;;2.70;;
66741;SDS011;53654;54.152;19.432;2023-05-20T03:27:05;3.30;;;2.50;;
66741;SDS011;53654;54.152;19.432;2023-05-20T03:29:33;3.20;;;2.40;;
66741;SDS011;53654;54.152;19.432;2023-05-20T03:32:02;5.30;;;2.60;;
66741;SDS011;53654;54.152;19.432;2023-05-20T03:34:30;2.80;;;2.20;;
66741;SDS011;53654;54.152;19.432;2023-05-20T03:36:59;3.10;;;2.50;;
66741;SDS011;53654;54.152;19.432;2023-05-20T03:39:27;4.00;;;2.50;;
66741;SDS011;53654;54.152;19.432;2023-05-20T03:41:55;4.70;;;2.80;;
66741;SDS011;53654;54.152;19.432;2023-05-20T03:44:23;3.10;;;2.70;;
66741;SDS011;53654;54.152;19.432;2023-05-20T03:46:51;4.50;;;2.80;;
66741;SDS011;53654;54.152;19.432;2023-05-20T03:49:20;3.00;;;2.70;;
66741;SDS011;53654;54.152;19.432;2023-05-20T03:51:48;3.00;;;2.60;;
66741;SDS011;53654;54.152;19.432;2023-05-20T03:54:16;2.70;;;2.40;;
66741;SDS011;53654;54.152;19.432;2023-05-20T03:56:47;4.20;;;2.60;;
66741;SDS011;53654;54.152;19.432;2023-05-20T03:59:17;3.00;;;2.70;;
66741;SDS011;53654;54.152;19.432;2023-05-20T04:01:45;4.70;;;2.70;;
66741;SDS011;53654;54.152;19.432;2023-05-20T04:04:13;3.60;;;2.70;;
66741;SDS011;53654;54.152;19.432;2023-05-20T04:06:42;5.40;;;2.80;;
66741;SDS011;53654;54.152;19.432;2023-05-20T04:09:10;4.00;;;3.40;;
66741;SDS011;53654;54.152;19.432;2023-05-20T04:11:38;3.70;;;2.80;;
66741;SDS011;53654;54.152;19.432;2023-05-20T04:14:07;3.70;;;2.90;;
66741;SDS011;53654;54.152;19.432;2023-05-20T04:16:37;4.70;;;2.90;;
66741;SDS011;53654;54.152;19.432;2023-05-20T04:19:06;3.50;;;2.70;;
66741;SDS011;53654;54.152;19.432;2023-05-20T04:21:34;3.70;;;2.90;;
66741;SDS011;53654;54.152;19.432;2023-05-20T04:24:02;4.30;;;2.90;;
66741;SDS011;53654;54.152;19.432;2023-05-20T04:26:31;3.20;;;2.60;;
66741;SDS011;53654;54.152;19.432;2023-05-20T04:29:00;4.20;;;2.90;;
66741;SDS011;53654;54.152;19.432;2023-05-20T04:31:31;3.50;;;2.90;;
66741;SDS011;53654;54.152;19.432;2023-05-20T04:33:59;3.10;;;2.60;;
66741;SDS011;53654;54.152;19.432;2023-05-20T04:36:47;3.90;;;3.10;;
66741;SDS011;53654;54.152;19.432;2023-05-20T04:39:15;3.70;;;2.50;;
66741;SDS011;53654;54.152;19.432;2023-05-20T04:41:50;4.00;;;2.70;;
66741;SDS011;53654;54.152;19.432;2023-05-20T04:44:18;3.90;;;3.00;;
66741;SDS011;53654;54.152;19.432;2023-05-20T04:46:47;3.30;;;2.60;;
66741;SDS011;53654;54.152;19.432;2023-05-20T04:49:16;3.70;;;2.70;;
66741;SDS011;53654;54.152;19.432;2023-05-20T04:51:44;3.60;;;2.70;;
66741;SDS011;53654;54.152;19.432;2023-05-20T04:54:14;4.20;;;3.10;;
66741;SDS011;53654;54.152;19.432;2023-05-20T04:56:45;4.90;;;2.80;;
66741;SDS011;53654;54.152;19.432;2023-05-20T04:59:14;3.20;;;2.90;;
66741;SDS011;53654;54.152;19.432;2023-05-20T05:01:42;4.60;;;2.90;;
66741;SDS011;53654;54.152;19.432;2023-05-20T05:04:10;3.60;;;2.70;;
66741;SDS011;53654;54.152;19.432;2023-05-20T05:06:38;4.00;;;2.90;;
66741;SDS011;53654;54.152;19.432;2023-05-20T05:09:07;2.70;;;2.50;;
66741;SDS011;53654;54.152;19.432;2023-05-20T05:11:36;4.60;;;2.60;;
66741;SDS011;53654;54.152;19.432;2023-05-20T05:14:04;3.30;;;2.70;;
66741;SDS011;53654;54.152;19.432;2023-05-20T05:16:33;4.30;;;3.50;;
66741;SDS011;53654;54.152;19.432;2023-05-20T05:19:01;4.50;;;3.60;;
66741;SDS011;53654;54.152;19.432;2023-05-20T05:21:33;4.00;;;3.60;;
66741;SDS011;53654;54.152;19.432;2023-05-20T05:24:03;5.10;;;3.60;;
66741;SDS011;53654;54.152;19.432;2023-05-20T05:26:31;6.10;;;3.60;;
66741;SDS011;53654;54.152;19.432;2023-05-20T05:29:00;4.80;;;3.20;;
66741;SDS011;53654;54.152;19.432;2023-05-20T05:31:28;3.30;;;2.70;;
66741;SDS011;53654;54.152;19.432;2023-05-20T05:33:56;4.40;;;3.00;;
66741;SDS011;53654;54.152;19.432;2023-05-20T05:36:24;3.90;;;3.00;;
66741;SDS011;53654;54.152;19.432;2023-05-20T05:38:53;4.20;;;3.00;;
66741;SDS011;53654;54.152;19.432;2023-05-20T05:41:22;3.50;;;2.60;;
66741;SDS011;53654;54.152;19.432;2023-05-20T05:43:50;3.00;;;2.60;;
66741;SDS011;53654;54.152;19.432;2023-05-20T05:46:19;3.90;;;2.20;;
66741;SDS011;53654;54.152;19.432;2023-05-20T05:48:48;2.70;;;2.10;;
66741;SDS011;53654;54.152;19.432;2023-05-20T05:51:17;3.10;;;2.40;;
66741;SDS011;53654;54.152;19.432;2023-05-20T05:53:46;2.40;;;2.20;;
66741;SDS011;53654;54.152;19.432;2023-05-20T05:56:14;5.20;;;2.40;;
66741;SDS011;53654;54.152;19.432;2023-05-20T05:58:42;2.50;;;2.20;;
66741;SDS011;53654;54.152;19.432;2023-05-20T06:01:11;3.30;;;2.40;;
66741;SDS011;53654;54.152;19.432;2023-05-20T06:03:39;3.40;;;2.30;;
66741;SDS011;53654;54.152;19.432;2023-05-20T06:06:08;2.80;;;2.30;;
66741;SDS011;53654;54.152;19.432;2023-05-20T06:08:36;2.70;;;2.30;;
66741;SDS011;53654;54.152;19.432;2023-05-20T06:11:05;4.00;;;2.60;;
66741;SDS011;53654;54.152;19.432;2023-05-20T06:13:34;4.10;;;2.50;;
66741;SDS011;53654;54.152;19.432;2023-05-20T06:16:03;4.20;;;2.60;;
66741;SDS011;53654;54.152;19.432;2023-05-20T06:18:32;4.30;;;2.80;;
66741;SDS011;53654;54.152;19.432;2023-05-20T06:21:04;4.40;;;2.50;;
66741;SDS011;53654;54.152;19.432;2023-05-20T06:23:32;3.80;;;2.70;;
66741;SDS011;53654;54.152;19.432;2023-05-20T06:26:03;3.10;;;2.30;;
66741;SDS011;53654;54.152;19.432;2023-05-20T06:28:32;5.40;;;2.50;;
66741;SDS011;53654;54.152;19.432;2023-05-20T06:31:00;4.40;;;2.30;;
66741;SDS011;53654;54.152;19.432;2023-05-20T06:33:32;2.90;;;2.20;;
66741;SDS011;53654;54.152;19.432;2023-05-20T06:36:05;3.20;;;2.10;;
66741;SDS011;53654;54.152;19.432;2023-05-20T06:38:33;3.30;;;2.40;;
66741;SDS011;53654;54.152;19.432;2023-05-20T06:41:01;3.00;;;2.30;;
66741;SDS011;53654;54.152;19.432;2023-05-20T06:43:31;3.80;;;2.60;;
66741;SDS011;53654;54.152;19.432;2023-05-20T06:46:04;3.60;;;2.70;;
66741;SDS011;53654;54.152;19.432;2023-05-20T06:48:36;2.80;;;2.10;;
66741;SDS011;53654;54.152;19.432;2023-05-20T06:51:06;2.50;;;2.10;;
66741;SDS011;53654;54.152;19.432;2023-05-20T06:53:36;2.80;;;2.10;;
66741;SDS011;53654;54.152;19.432;2023-05-20T06:56:04;5.60;;;2.20;;
66741;SDS011;53654;54.152;19.432;2023-05-20T06:58:33;4.30;;;2.20;;
66741;SDS011;53654;54.152;19.432;2023-05-20T07:01:01;3.20;;;2.30;;
66741;SDS011;53654;54.152;19.432;2023-05-20T07:03:30;3.10;;;2.20;;
66741;SDS011;53654;54.152;19.432;2023-05-20T07:05:58;3.50;;;2.10;;
66741;SDS011;53654;54.152;19.432;2023-05-20T07:08:28;3.60;;;2.20;;
66741;SDS011;53654;54.152;19.432;2023-05-20T07:10:56;3.60;;;2.30;;
66741;SDS011;53654;54.152;19.432;2023-05-20T07:13:24;2.60;;;2.20;;
66741;SDS011;53654;54.152;19.432;2023-05-20T07:15:53;3.50;;;2.30;;
66741;SDS011;53654;54.152;19.432;2023-05-20T07:18:21;2.50;;;2.30;;
66741;SDS011;53654;54.152;19.432;2023-05-20T07:20:53;4.30;;;2.30;;
66741;SDS011;53654;54.152;19.432;2023-05-20T07:23:40;3.40;;;2.40;;
66741;SDS011;53654;54.152;19.432;2023-05-20T07:26:09;3.30;;;2.10;;
66741;SDS011;53654;54.152;19.432;2023-05-20T07:28:38;3.00;;;1.90;;
66741;SDS011;53654;54.152;19.432;2023-05-20T07:31:06;2.80;;;2.30;;
66741;SDS011;53654;54.152;19.432;2023-05-20T07:33:41;2.50;;;2.20;;
66741;SDS011;53654;54.152;19.432;2023-05-20T07:36:10;2.40;;;2.00;;
66741;SDS011;53654;54.152;19.432;2023-05-20T07:38:40;3.50;;;2.00;;
66741;SDS011;53654;54.152;19.432;2023-05-20T07:41:28;2.80;;;2.00;;
66741;SDS011;53654;54.152;19.432;2023-05-20T07:43:57;3.70;;;1.80;;
66741;SDS011;53654;54.152;19.432;2023-05-20T07:46:25;3.00;;;2.00;;
66741;SDS011;53654;54.152;19.432;2023-05-20T07:48:53;3.30;;;2.10;;
66741;SDS011;53654;54.152;19.432;2023-05-20T07:51:21;3.10;;;1.90;;
66741;SDS011;53654;54.152;19.432;2023-05-20T07:53:50;4.40;;;2.00;;
66741;SDS011;53654;54.152;19.432;2023-05-20T07:56:18;3.00;;;1.80;;
66741;SDS011;53654;54.152;19.432;2023-05-20T07:58:54;3.70;;;1.70;;
66741;SDS011;53654;54.152;19.432;2023-05-20T08:01:25;2.50;;;1.70;;
66741;SDS011;53654;54.152;19.432;2023-05-20T08:03:54;2.60;;;1.40;;
66741;SDS011;53654;54.152;19.432;2023-05-20T08:06:24;2.10;;;1.70;;
66741;SDS011;53654;54.152;19.432;2023-05-20T08:08:56;2.00;;;1.70;;
66741;SDS011;53654;54.152;19.432;2023-05-20T08:11:30;2.60;;;2.10;;
66741;SDS011;53654;54.152;19.432;2023-05-20T08:13:58;3.70;;;2.00;;
66741;SDS011;53654;54.152;19.432;2023-05-20T08:16:28;3.00;;;2.00;;
66741;SDS011;53654;54.152;19.432;2023-05-20T08:18:57;2.40;;;1.80;;
66741;SDS011;53654;54.152;19.432;2023-05-20T08:21:26;2.10;;;1.90;;
66741;SDS011;53654;54.152;19.432;2023-05-20T08:23:54;2.70;;;1.80;;
66741;SDS011;53654;54.152;19.432;2023-05-20T08:26:22;4.60;;;1.90;;
66741;SDS011;53654;54.152;19.432;2023-05-20T08:28:50;2.00;;;1.80;;
66741;SDS011;53654;54.152;19.432;2023-05-20T08:31:19;3.50;;;1.90;;
66741;SDS011;53654;54.152;19.432;2023-05-20T08:33:47;2.50;;;2.00;;
66741;SDS011;53654;54.152;19.432;2023-05-20T08:36:15;2.90;;;1.90;;
66741;SDS011;53654;54.152;19.432;2023-05-20T08:38:43;2.60;;;1.80;;
66741;SDS011;53654;54.152;19.432;2023-05-20T08:41:12;2.30;;;1.70;;
66741;SDS011;53654;54.152;19.432;2023-05-20T08:43:42;3.30;;;1.80;;
66741;SDS011;53654;54.152;19.432;2023-05-20T08:46:11;2.70;;;1.80;;
66741;SDS011;53654;54.152;19.432;2023-05-20T08:48:39;2.90;;;1.90;;
66741;SDS011;53654;54.152;19.432;2023-05-20T08:51:08;2.10;;;1.80;;
66741;SDS011;53654;54.152;19.432;2023-05-20T08:53:38;3.70;;;1.90;;
66741;SDS011;53654;54.152;19.432;2023-05-20T08:56:06;2.40;;;1.90;;
66741;SDS011;53654;54.152;19.432;2023-05-20T08:58:36;3.80;;;2.00;;
66741;SDS011;53654;54.152;19.432;2023-05-20T09:01:05;2.50;;;1.80;;
66741;SDS011;53654;54.152;19.432;2023-05-20T09:03:34;2.00;;;1.80;;
66741;SDS011;53654;54.152;19.432;2023-05-20T09:06:05;4.30;;;2.10;;
66741;SDS011;53654;54.152;19.432;2023-05-20T09:08:35;4.10;;;2.20;;
66741;SDS011;53654;54.152;19.432;2023-05-20T09:11:03;4.60;;;1.90;;
66741;SDS011;53654;54.152;19.432;2023-05-20T09:13:32;2.10;;;1.80;;
66741;SDS011;53654;54.152;19.432;2023-05-20T09:16:01;3.30;;;2.30;;
66741;SDS011;53654;54.152;19.432;2023-05-20T09:18:30;3.20;;;2.10;;
66741;SDS011;53654;54.152;19.432;2023-05-20T09:21:03;3.20;;;2.10;;
66741;SDS011;53654;54.152;19.432;2023-05-20T09:23:36;4.30;;;2.20;;
66741;SDS011;53654;54.152;19.432;2023-05-20T09:26:05;4.10;;;2.40;;
66741;SDS011;53654;54.152;19.432;2023-05-20T09:28:33;5.10;;;2.70;;
66741;SDS011;53654;54.152;19.432;2023-05-20T09:31:05;3.40;;;2.70;;
66741;SDS011;53654;54.152;19.432;2023-05-20T09:33:33;3.40;;;2.80;;
66741;SDS011;53654;54.152;19.432;2023-05-20T09:36:04;3.70;;;2.90;;
66741;SDS011;53654;54.152;19.432;2023-05-20T09:38:38;4.10;;;2.80;;
66741;SDS011;53654;54.152;19.432;2023-05-20T09:41:09;6.00;;;3.10;;
66741;SDS011;53654;54.152;19.432;2023-05-20T09:43:39;2.60;;;2.30;;
66741;SDS011;53654;54.152;19.432;2023-05-20T09:46:07;3.50;;;2.50;;
66741;SDS011;53654;54.152;19.432;2023-05-20T09:48:36;4.60;;;2.60;;
66741;SDS011;53654;54.152;19.432;2023-05-20T09:51:05;4.30;;;2.50;;
66741;SDS011;53654;54.152;19.432;2023-05-20T09:53:34;4.70;;;2.70;;
66741;SDS011;53654;54.152;19.432;2023-05-20T09:56:03;4.20;;;2.10;;
66741;SDS011;53654;54.152;19.432;2023-05-20T09:58:32;3.90;;;2.40;;
66741;SDS011;53654;54.152;19.432;2023-05-20T10:01:02;4.10;;;2.60;;
66741;SDS011;53654;54.152;19.432;2023-05-20T10:03:31;5.30;;;2.50;;
66741;SDS011;53654;54.152;19.432;2023-05-20T10:08:45;3.50;;;2.50;;
66741;SDS011;53654;54.152;19.432;2023-05-20T10:11:32;3.60;;;2.90;;
66741;SDS011;53654;54.152;19.432;2023-05-20T10:19:58;3.10;;;2.50;;
66741;SDS011;53654;54.152;19.432;2023-05-20T10:22:28;4.60;;;3.30;;
66741;SDS011;53654;54.152;19.432;2023-05-20T10:24:58;4.40;;;2.90;;
66741;SDS011;53654;54.152;19.432;2023-05-20T10:27:28;2.90;;;2.50;;
66741;SDS011;53654;54.152;19.432;2023-05-20T10:29:56;4.80;;;2.60;;
66741;SDS011;53654;54.152;19.432;2023-05-20T10:35:02;4.00;;;3.20;;
66741;SDS011;53654;54.152;19.432;2023-05-20T10:37:33;5.60;;;4.40;;
66741;SDS011;53654;54.152;19.432;2023-05-20T10:40:10;6.00;;;4.40;;
66741;SDS011;53654;54.152;19.432;2023-05-20T10:42:40;3.40;;;2.90;;
66741;SDS011;53654;54.152;19.432;2023-05-20T10:45:09;4.50;;;3.10;;
66741;SDS011;53654;54.152;19.432;2023-05-20T10:47:41;4.20;;;2.80;;
66741;SDS011;53654;54.152;19.432;2023-05-20T10:50:34;4.20;;;3.00;;
66741;SDS011;53654;54.152;19.432;2023-05-20T10:53:05;3.50;;;2.70;;
66741;SDS011;53654;54.152;19.432;2023-05-20T10:55:46;3.50;;;2.90;;
66741;SDS011;53654;54.152;19.432;2023-05-20T10:58:21;4.10;;;3.70;;
66741;SDS011;53654;54.152;19.432;2023-05-20T11:00:52;5.80;;;3.60;;
66741;SDS011;53654;54.152;19.432;2023-05-20T11:03:21;3.80;;;3.20;;
66741;SDS011;53654;54.152;19.432;2023-05-20T11:05:50;5.40;;;3.20;;
66741;SDS011;53654;54.152;19.432;2023-05-20T11:08:18;4.40;;;3.20;;
66741;SDS011;53654;54.152;19.432;2023-05-20T11:10:58;4.00;;;2.90;;
66741;SDS011;53654;54.152;19.432;2023-05-20T11:13:26;4.10;;;3.20;;
66741;SDS011;53654;54.152;19.432;2023-05-20T11:15:55;3.70;;;3.20;;
66741;SDS011;53654;54.152;19.432;2023-05-20T11:18:25;3.40;;;3.10;;
66741;SDS011;53654;54.152;19.432;2023-05-20T11:20:57;3.30;;;3.00;;
66741;SDS011;53654;54.152;19.432;2023-05-20T11:23:27;3.40;;;3.10;;
66741;SDS011;53654;54.152;19.432;2023-05-20T11:25:56;3.30;;;2.70;;
66741;SDS011;53654;54.152;19.432;2023-05-20T11:28:25;3.50;;;2.70;;
66741;SDS011;53654;54.152;19.432;2023-05-20T11:30:53;4.50;;;2.80;;
66741;SDS011;53654;54.152;19.432;2023-05-20T11:33:24;3.50;;;3.20;;
66741;SDS011;53654;54.152;19.432;2023-05-20T11:35:53;4.50;;;3.90;;
66741;SDS011;53654;54.152;19.432;2023-05-20T11:38:22;5.40;;;3.70;;
66741;SDS011;53654;54.152;19.432;2023-05-20T11:40:53;5.10;;;3.40;;
66741;SDS011;53654;54.152;19.432;2023-05-20T11:43:23;3.40;;;3.00;;
66741;SDS011;53654;54.152;19.432;2023-05-20T11:45:52;3.30;;;2.60;;
66741;SDS011;53654;54.152;19.432;2023-05-20T11:48:22;3.50;;;2.40;;
66741;SDS011;53654;54.152;19.432;2023-05-20T11:50:51;4.20;;;2.40;;
66741;SDS011;53654;54.152;19.432;2023-05-20T11:53:22;3.30;;;2.20;;
66741;SDS011;53654;54.152;19.432;2023-05-20T11:55:56;4.00;;;2.70;;
66741;SDS011;53654;54.152;19.432;2023-05-20T11:58:29;2.60;;;2.40;;
66741;SDS011;53654;54.152;19.432;2023-05-20T12:00:58;2.70;;;2.50;;
66741;SDS011;53654;54.152;19.432;2023-05-20T12:03:47;3.40;;;2.40;;
66741;SDS011;53654;54.152;19.432;2023-05-20T12:06:16;4.10;;;2.50;;
66741;SDS011;53654;54.152;19.432;2023-05-20T12:08:44;2.60;;;2.30;;
66741;SDS011;53654;54.152;19.432;2023-05-20T12:11:14;4.20;;;2.50;;
66741;SDS011;53654;54.152;19.432;2023-05-20T12:13:42;2.60;;;2.30;;
66741;SDS011;53654;54.152;19.432;2023-05-20T12:16:10;2.80;;;2.50;;
66741;SDS011;53654;54.152;19.432;2023-05-20T12:18:38;3.80;;;2.70;;
66741;SDS011;53654;54.152;19.432;2023-05-20T12:21:06;3.60;;;2.80;;
66741;SDS011;53654;54.152;19.432;2023-05-20T12:23:35;4.00;;;2.90;;
66741;SDS011;53654;54.152;19.432;2023-05-20T12:26:03;2.80;;;2.60;;
66741;SDS011;53654;54.152;19.432;2023-05-20T12:28:32;7.00;;;3.00;;
66741;SDS011;53654;54.152;19.432;2023-05-20T12:31:00;3.10;;;2.80;;
66741;SDS011;53654;54.152;19.432;2023-05-20T12:33:28;4.50;;;2.90;;
66741;SDS011;53654;54.152;19.432;2023-05-20T12:35:56;3.70;;;2.70;;
66741;SDS011;53654;54.152;19.432;2023-05-20T12:38:25;3.20;;;2.70;;
66741;SDS011;53654;54.152;19.432;2023-05-20T12:40:53;3.90;;;2.70;;
66741;SDS011;53654;54.152;19.432;2023-05-20T12:43:21;3.50;;;3.00;;
66741;SDS011;53654;54.152;19.432;2023-05-20T12:45:50;4.50;;;3.10;;
66741;SDS011;53654;54.152;19.432;2023-05-20T12:48:19;4.50;;;3.30;;
66741;SDS011;53654;54.152;19.432;2023-05-20T12:50:47;4.50;;;3.10;;
66741;SDS011;53654;54.152;19.432;2023-05-20T12:53:15;5.30;;;3.00;;
66741;SDS011;53654;54.152;19.432;2023-05-20T12:55:43;4.10;;;3.40;;
66741;SDS011;53654;54.152;19.432;2023-05-20T12:58:11;3.50;;;3.20;;
66741;SDS011;53654;54.152;19.432;2023-05-20T13:00:40;5.40;;;3.60;;
66741;SDS011;53654;54.152;19.432;2023-05-20T13:03:08;4.40;;;3.20;;
66741;SDS011;53654;54.152;19.432;2023-05-20T13:05:36;4.50;;;3.40;;
66741;SDS011;53654;54.152;19.432;2023-05-20T13:08:04;4.90;;;5.20;;
66741;SDS011;53654;54.152;19.432;2023-05-20T13:10:33;4.60;;;4.00;;
66741;SDS011;53654;54.152;19.432;2023-05-20T13:13:01;4.10;;;3.70;;
66741;SDS011;53654;54.152;19.432;2023-05-20T13:15:29;4.50;;;3.70;;
66741;SDS011;53654;54.152;19.432;2023-05-20T13:18:00;4.40;;;3.80;;
66741;SDS011;53654;54.152;19.432;2023-05-20T13:20:30;4.70;;;4.20;;
66741;SDS011;53654;54.152;19.432;2023-05-20T13:22:58;6.90;;;4.50;;
66741;SDS011;53654;54.152;19.432;2023-05-20T13:25:26;4.90;;;4.40;;
66741;SDS011;53654;54.152;19.432;2023-05-20T13:27:55;5.40;;;4.80;;
66741;SDS011;53654;54.152;19.432;2023-05-20T13:30:23;4.70;;;4.30;;
66741;SDS011;53654;54.152;19.432;2023-05-20T13:32:51;5.90;;;4.80;;
66741;SDS011;53654;54.152;19.432;2023-05-20T13:35:19;5.70;;;4.40;;
66741;SDS011;53654;54.152;19.432;2023-05-20T13:37:47;6.80;;;5.20;;
66741;SDS011;53654;54.152;19.432;2023-05-20T13:40:16;5.10;;;4.60;;
66741;SDS011;53654;54.152;19.432;2023-05-20T13:42:44;5.30;;;4.80;;
66741;SDS011;53654;54.152;19.432;2023-05-20T13:45:12;4.90;;;4.40;;
66741;SDS011;53654;54.152;19.432;2023-05-20T13:47:41;4.50;;;4.10;;
66741;SDS011;53654;54.152;19.432;2023-05-20T13:50:09;5.00;;;4.20;;
66741;SDS011;53654;54.152;19.432;2023-05-20T13:52:47;5.20;;;4.10;;
66741;SDS011;53654;54.152;19.432;2023-05-20T13:55:16;4.70;;;4.30;;
66741;SDS011;53654;54.152;19.432;2023-05-20T13:57:45;4.30;;;4.00;;
66741;SDS011;53654;54.152;19.432;2023-05-20T14:00:14;5.00;;;3.90;;
66741;SDS011;53654;54.152;19.432;2023-05-20T14:02:42;4.50;;;4.10;;
66741;SDS011;53654;54.152;19.432;2023-05-20T14:05:11;4.90;;;4.10;;
66741;SDS011;53654;54.152;19.432;2023-05-20T14:07:40;5.00;;;4.30;;
66741;SDS011;53654;54.152;19.432;2023-05-20T14:10:08;5.00;;;4.60;;
66741;SDS011;53654;54.152;19.432;2023-05-20T14:12:36;4.60;;;4.20;;
66741;SDS011;53654;54.152;19.432;2023-05-20T14:15:04;5.50;;;4.20;;
66741;SDS011;53654;54.152;19.432;2023-05-20T14:17:33;4.50;;;4.10;;
66741;SDS011;53654;54.152;19.432;2023-05-20T14:20:01;4.80;;;4.40;;
66741;SDS011;53654;54.152;19.432;2023-05-20T14:22:29;4.70;;;4.30;;
66741;SDS011;53654;54.152;19.432;2023-05-20T14:24:58;4.70;;;4.30;;
66741;SDS011;53654;54.152;19.432;2023-05-20T14:27:26;4.80;;;4.20;;
66741;SDS011;53654;54.152;19.432;2023-05-20T14:29:54;5.40;;;4.10;;
66741;SDS011;53654;54.152;19.432;2023-05-20T14:32:23;4.90;;;4.30;;
66741;SDS011;53654;54.152;19.432;2023-05-20T14:34:52;5.40;;;3.90;;
66741;SDS011;53654;54.152;19.432;2023-05-20T14:37:20;5.60;;;4.10;;
66741;SDS011;53654;54.152;19.432;2023-05-20T14:39:49;4.80;;;4.40;;
66741;SDS011;53654;54.152;19.432;2023-05-20T14:42:18;5.00;;;4.50;;
66741;SDS011;53654;54.152;19.432;2023-05-20T14:44:46;5.50;;;4.40;;
66741;SDS011;53654;54.152;19.432;2023-05-20T14:47:16;5.20;;;4.30;;
66741;SDS011;53654;54.152;19.432;2023-05-20T14:49:49;4.80;;;4.30;;
66741;SDS011;53654;54.152;19.432;2023-05-20T14:52:17;4.30;;;3.90;;
66741;SDS011;53654;54.152;19.432;2023-05-20T14:54:45;5.30;;;4.00;;
66741;SDS011;53654;54.152;19.432;2023-05-20T14:57:14;4.30;;;3.90;;